Time;durP1;ratioP1;P1;durP2;ratioP2;P2;SDS_P1;SDS_P2;PMS_P1;PMS_P2;Temp;Humidity;BMP_temperature;BMP_pressure;BME280_temperature;BME280_humidity;BME280_pressure;Samples;Min_cycle;Max_cycle;Signal;HPM_P1;HPM_P2
2023/03/09 03:01:38;;;;;;;8.90;8.40;;;8.40;99.90;;;;;;5502425;23;20289;-78
2023/03/09 03:04:05;;;;;;;8.73;8.23;;;8.40;99.90;;;;;;4957819;28;20233;-79
2023/03/09 03:06:34;;;;;;;8.67;8.13;;;8.40;99.90;;;;;;4972616;28;20581;-78
2023/03/09 03:09:01;;;;;;;8.70;8.30;;;8.40;99.90;;;;;;4976668;28;20221;-78
2023/03/09 03:11:28;;;;;;;9.50;9.00;;;8.50;99.90;;;;;;4972094;28;20217;-79
2023/03/09 03:13:59;;;;;;;9.33;8.73;;;8.50;99.90;;;;;;4983695;28;20194;-80
2023/03/09 03:16:27;;;;;;;9.30;8.80;;;8.50;99.90;;;;;;4966951;28;20245;-80
2023/03/09 03:18:55;;;;;;;9.60;9.00;;;8.50;99.90;;;;;;4988223;28;20229;-79
2023/03/09 03:21:24;;;;;;;9.90;9.30;;;8.50;99.90;;;;;;4965908;28;20228;-78
2023/03/09 03:23:51;;;;;;;9.50;9.00;;;8.50;99.90;;;;;;4967441;28;20278;-78
2023/03/09 03:26:18;;;;;;;9.50;8.80;;;8.60;99.90;;;;;;4967452;28;20195;-79
2023/03/09 03:28:50;;;;;;;8.97;8.47;;;8.60;99.90;;;;;;4970584;28;20193;-79
2023/03/09 03:31:23;;;;;;;8.80;8.30;;;8.60;99.90;;;;;;4953032;28;20214;-79
2023/03/09 03:33:50;;;;;;;8.90;8.40;;;8.60;99.90;;;;;;4972902;28;20224;-79
2023/03/09 03:36:19;;;;;;;9.00;8.50;;;8.60;99.90;;;;;;4967943;28;20198;-78
2023/03/09 03:38:48;;;;;;;9.10;8.60;;;8.60;99.90;;;;;;4972705;28;20276;-77
2023/03/09 03:41:15;;;;;;;9.10;8.60;;;8.70;99.90;;;;;;4964765;28;20221;-80
2023/03/09 03:43:45;;;;;;;8.80;8.30;;;8.70;99.90;;;;;;4966843;28;20224;-79
2023/03/09 03:46:14;;;;;;;8.93;8.43;;;8.70;99.90;;;;;;4969235;28;20588;-80
2023/03/09 03:48:42;;;;;;;9.03;8.53;;;8.70;99.90;;;;;;4966061;28;20258;-79
2023/03/09 03:51:10;;;;;;;9.30;8.80;;;8.70;99.90;;;;;;4961540;28;20218;-80
2023/03/09 03:53:40;;;;;;;9.93;9.33;;;8.70;99.90;;;;;;4941985;28;20222;-81
2023/03/09 03:56:07;;;;;;;11.80;11.20;;;8.80;99.90;;;;;;4963581;28;20702;-81
2023/03/09 03:58:38;;;;;;;9.87;9.20;;;8.80;99.90;;;;;;4952138;28;20202;-83
2023/03/09 04:01:06;;;;;;;10.10;9.50;;;8.80;99.90;;;;;;4957316;28;20226;-84
2023/03/09 04:03:33;;;;;;;9.47;8.97;;;8.90;99.90;;;;;;4953235;28;20222;-84
2023/03/09 04:06:03;;;;;;;10.50;9.90;;;8.90;99.90;;;;;;4953514;28;20213;-84
2023/03/09 04:08:30;;;;;;;9.97;9.37;;;8.90;99.90;;;;;;4950647;28;20289;-83
2023/03/09 04:10:59;;;;;;;10.13;9.50;;;8.90;99.90;;;;;;4948351;28;20592;-83
2023/03/09 04:13:26;;;;;;;9.90;9.33;;;8.90;99.90;;;;;;4953983;28;20202;-82
2023/03/09 04:15:53;;;;;;;10.20;9.60;;;8.80;99.90;;;;;;4962865;28;20230;-84
2023/03/09 04:18:22;;;;;;;10.13;9.63;;;8.90;99.90;;;;;;4962765;28;20205;-84
2023/03/09 04:20:49;;;;;;;9.87;9.30;;;8.90;99.90;;;;;;4962568;28;20237;-81
2023/03/09 04:23:17;;;;;;;9.93;9.40;;;8.80;99.90;;;;;;4964767;28;20320;-82
2023/03/09 04:25:55;;;;;;;9.80;9.30;;;8.80;99.90;;;;;;4956116;28;20198;-82
2023/03/09 04:28:24;;;;;;;9.47;8.97;;;8.80;99.90;;;;;;4952025;28;20678;-83
2023/03/09 04:30:54;;;;;;;9.60;9.10;;;8.80;99.90;;;;;;4966291;28;20222;-83
2023/03/09 04:33:22;;;;;;;9.40;8.90;;;8.70;99.90;;;;;;4968154;28;20209;-83
2023/03/09 04:35:49;;;;;;;9.53;8.93;;;8.70;99.90;;;;;;4971878;28;20226;-84
2023/03/09 04:38:21;;;;;;;9.30;8.80;;;8.70;99.90;;;;;;4964961;28;20198;-84
2023/03/09 04:40:50;;;;;;;9.80;9.20;;;8.70;99.90;;;;;;4961952;28;20620;-79
2023/03/09 04:43:17;;;;;;;9.87;9.27;;;8.60;99.90;;;;;;4971752;28;20197;-79
2023/03/09 04:45:45;;;;;;;10.00;9.30;;;8.60;99.90;;;;;;4954118;28;20558;-79
2023/03/09 04:48:12;;;;;;;10.57;9.60;;;8.60;99.90;;;;;;4959161;28;20202;-79
2023/03/09 04:50:39;;;;;;;10.23;9.63;;;8.60;99.90;;;;;;4973556;28;20676;-79
2023/03/09 04:53:07;;;;;;;10.57;9.97;;;8.60;99.90;;;;;;4959561;28;20213;-79
2023/03/09 04:55:37;;;;;;;10.30;9.70;;;8.60;99.90;;;;;;4964589;28;20291;-79
2023/03/09 04:58:06;;;;;;;10.10;9.50;;;8.60;99.90;;;;;;4968468;28;20233;-79
2023/03/09 05:00:34;;;;;;;10.77;10.07;;;8.60;99.90;;;;;;4964521;28;20258;-79
2023/03/09 05:03:04;;;;;;;10.90;9.97;;;8.60;99.90;;;;;;4961134;28;20810;-78
2023/03/09 05:05:32;;;;;;;11.20;10.50;;;8.50;99.90;;;;;;4973261;28;20222;-78
2023/03/09 05:08:02;;;;;;;10.70;10.00;;;8.50;99.90;;;;;;4970488;28;20198;-79
2023/03/09 05:10:29;;;;;;;10.90;10.20;;;8.50;99.90;;;;;;4972099;28;20210;-78
2023/03/09 05:12:58;;;;;;;10.70;9.90;;;8.50;99.90;;;;;;4974176;28;20201;-79
2023/03/09 05:15:30;;;;;;;10.43;9.77;;;8.50;99.90;;;;;;4968547;28;20619;-79
2023/03/09 05:17:58;;;;;;;10.30;9.60;;;8.50;99.90;;;;;;4961748;28;20206;-79
2023/03/09 05:20:28;;;;;;;10.10;9.40;;;8.40;99.90;;;;;;4954508;28;20234;-79
2023/03/09 05:23:06;;;;;;;10.37;9.67;;;8.50;99.90;;;;;;4950656;28;20214;-79
2023/03/09 05:25:33;;;;;;;10.13;9.50;;;8.40;99.90;;;;;;4955342;28;20218;-79
2023/03/09 05:28:04;;;;;;;10.33;9.60;;;8.40;99.90;;;;;;4953978;28;20203;-79
2023/03/09 05:30:32;;;;;;;10.80;9.87;;;8.40;99.90;;;;;;4972249;28;20688;-79
2023/03/09 05:33:03;;;;;;;10.47;9.80;;;8.30;99.90;;;;;;4974906;28;20206;-79
2023/03/09 05:35:33;;;;;;;10.83;10.00;;;8.30;99.90;;;;;;4969410;28;20699;-79
2023/03/09 05:38:02;;;;;;;10.53;9.83;;;8.30;99.90;;;;;;4969005;28;20298;-79
2023/03/09 05:40:29;;;;;;;11.27;10.43;;;8.20;99.90;;;;;;4973483;28;20280;-79
2023/03/09 05:43:00;;;;;;;11.20;10.30;;;8.20;99.90;;;;;;4973461;28;20759;-79
2023/03/09 05:45:27;;;;;;;10.43;9.73;;;8.20;99.90;;;;;;4968301;28;20222;-79
2023/03/09 05:47:55;;;;;;;10.60;9.90;;;8.20;99.90;;;;;;4964027;28;20760;-79
2023/03/09 05:50:22;;;;;;;10.60;10.00;;;8.20;99.90;;;;;;4956808;28;20194;-80
2023/03/09 05:52:50;;;;;;;10.90;10.07;;;8.20;99.90;;;;;;4963322;28;20231;-79
2023/03/09 05:55:19;;;;;;;11.33;10.30;;;8.20;99.90;;;;;;4970922;28;20688;-79
2023/03/09 05:57:46;;;;;;;11.37;10.57;;;8.20;99.90;;;;;;4984323;28;20203;-80
2023/03/09 06:00:15;;;;;;;11.60;10.80;;;8.30;99.90;;;;;;4971185;28;20258;-79
2023/03/09 06:02:48;;;;;;;11.40;10.70;;;8.30;99.90;;;;;;4962177;28;20241;-79
2023/03/09 06:05:21;;;;;;;11.33;10.53;;;8.40;99.90;;;;;;4965382;28;20301;-79
2023/03/09 06:07:51;;;;;;;11.43;10.73;;;8.40;99.90;;;;;;4953996;28;20700;-79
2023/03/09 06:10:19;;;;;;;12.33;11.37;;;8.50;99.90;;;;;;4969180;28;20206;-79
2023/03/09 06:12:46;;;;;;;6.97;6.10;;;8.50;99.90;;;;;;4967624;28;20200;-79
2023/03/09 06:15:14;;;;;;;11.67;10.87;;;8.50;99.90;;;;;;4965560;28;20568;-79
2023/03/09 06:17:41;;;;;;;10.07;9.13;;;8.50;99.90;;;;;;4949618;28;20199;-79
2023/03/09 06:20:14;;;;;;;8.10;7.40;;;8.50;99.90;;;;;;4937934;28;20195;-78
2023/03/09 06:22:45;;;;;;;7.17;6.67;;;8.60;99.90;;;;;;4937987;28;20315;-79
2023/03/09 06:25:15;;;;;;;10.97;10.27;;;8.60;99.90;;;;;;4943671;28;20215;-79
2023/03/09 06:27:42;;;;;;;13.63;12.80;;;8.70;99.90;;;;;;4938624;28;20286;-79
2023/03/09 06:30:12;;;;;;;6.43;5.83;;;8.70;99.90;;;;;;4941476;28;20205;-79
2023/03/09 06:32:40;;;;;;;4.50;4.10;;;8.90;99.90;;;;;;4938460;28;20267;-79
2023/03/09 06:35:08;;;;;;;7.33;4.53;;;8.90;99.90;;;;;;4938927;28;20684;-78
2023/03/09 06:37:35;;;;;;;4.90;2.93;;;9.10;99.90;;;;;;4939343;28;20210;-80
2023/03/09 06:40:04;;;;;;;3.73;3.30;;;9.20;99.90;;;;;;4940602;28;20290;-80
2023/03/09 06:42:33;;;;;;;4.03;3.63;;;9.30;99.90;;;;;;4943809;28;20217;-80
2023/03/09 06:45:00;;;;;;;5.20;3.13;;;9.60;99.90;;;;;;4945627;28;20227;-85
2023/03/09 06:47:31;;;;;;;11.30;10.60;;;9.70;99.90;;;;;;4951646;28;20578;-83
2023/03/09 06:50:04;;;;;;;11.00;10.20;;;9.80;99.90;;;;;;4960054;28;20225;-80
2023/03/09 06:52:32;;;;;;;6.90;6.40;;;9.80;99.90;;;;;;4966067;28;20222;-82
2023/03/09 06:55:00;;;;;;;11.93;10.93;;;9.80;99.90;;;;;;4960665;28;20289;-80
2023/03/09 06:57:29;;;;;;;12.20;11.40;;;9.90;99.90;;;;;;4963555;28;20228;-80
2023/03/09 06:59:58;;;;;;;11.73;10.83;;;10.00;99.90;;;;;;4962376;28;20285;-80
2023/03/09 07:02:25;;;;;;;10.60;9.90;;;10.10;99.90;;;;;;4954168;28;20712;-79
2023/03/09 07:04:53;;;;;;;11.60;10.70;;;10.10;99.90;;;;;;4952617;28;20218;-79
2023/03/09 07:07:20;;;;;;;11.83;10.83;;;10.10;99.90;;;;;;4972517;28;20206;-80
2023/03/09 07:09:47;;;;;;;11.37;10.37;;;10.10;99.90;;;;;;4965229;28;20203;-80
2023/03/09 07:12:14;;;;;;;11.30;10.50;;;10.00;99.90;;;;;;4962381;28;20244;-80
2023/03/09 07:14:40;;;;;;;11.60;10.70;;;9.90;99.90;;;;;;4961003;28;20743;-80
2023/03/09 07:17:13;;;;;;;11.23;10.53;;;9.90;99.90;;;;;;4959165;28;20207;-80
2023/03/09 07:19:40;;;;;;;9.80;9.00;;;9.90;99.90;;;;;;4960672;28;20202;-80
2023/03/09 07:22:07;;;;;;;10.50;9.60;;;9.90;99.90;;;;;;4964792;28;20650;-79
2023/03/09 07:24:35;;;;;;;10.63;9.50;;;10.10;99.90;;;;;;4969829;28;20262;-80
2023/03/09 07:27:02;;;;;;;11.40;10.40;;;10.50;99.90;;;;;;4968757;28;20206;-80
2023/03/09 07:29:28;;;;;;;10.00;9.20;;;11.00;99.90;;;;;;4959238;28;20243;-80
2023/03/09 07:31:55;;;;;;;9.53;8.70;;;11.40;99.90;;;;;;4965532;28;20670;-79
2023/03/09 07:34:24;;;;;;;10.63;9.90;;;12.00;99.90;;;;;;4959825;28;20200;-80
2023/03/09 07:36:51;;;;;;;10.17;9.43;;;12.20;99.90;;;;;;4957947;28;20198;-80
2023/03/09 07:39:18;;;;;;;10.70;10.00;;;12.10;99.90;;;;;;4956983;28;20200;-80
2023/03/09 07:41:45;;;;;;;10.37;9.67;;;11.90;99.90;;;;;;4965597;28;20279;-80
2023/03/09 07:44:12;;;;;;;10.23;9.43;;;11.80;99.90;;;;;;4967787;28;20582;-80
2023/03/09 07:46:38;;;;;;;10.63;9.80;;;11.60;99.90;;;;;;4966340;28;20248;-80
2023/03/09 07:49:05;;;;;;;10.03;9.23;;;11.40;99.90;;;;;;4958942;28;20303;-80
2023/03/09 07:51:33;;;;;;;9.73;9.00;;;11.40;99.90;;;;;;4964256;28;20593;-79
2023/03/09 07:54:00;;;;;;;10.33;9.53;;;11.30;99.90;;;;;;4965328;28;20660;-79
2023/03/09 07:56:27;;;;;;;10.00;9.20;;;11.30;99.90;;;;;;4961508;28;20246;-81
2023/03/09 07:58:55;;;;;;;9.50;8.80;;;11.40;99.90;;;;;;4960229;28;20202;-80
2023/03/09 08:01:21;;;;;;;9.90;9.10;;;11.40;99.90;;;;;;4942395;28;20234;-80
2023/03/09 08:03:48;;;;;;;10.23;9.33;;;11.30;99.90;;;;;;4963478;28;20258;-80
2023/03/09 08:06:16;;;;;;;10.13;9.30;;;11.40;99.90;;;;;;4960420;28;20227;-80
2023/03/09 08:08:44;;;;;;;10.00;9.10;;;11.60;99.90;;;;;;4968307;28;20675;-80
2023/03/09 08:11:11;;;;;;;13.13;12.13;;;12.00;99.90;;;;;;4967229;28;20220;-80
2023/03/09 08:13:38;;;;;;;10.37;9.50;;;12.30;99.90;;;;;;4970973;28;20255;-79
2023/03/09 08:16:07;;;;;;;9.50;8.80;;;12.60;99.90;;;;;;4963853;28;20267;-80
2023/03/09 08:18:35;;;;;;;8.73;8.00;;;12.70;99.90;;;;;;4966404;28;20227;-79
2023/03/09 08:21:06;;;;;;;10.17;9.30;;;12.80;99.90;;;;;;4963562;28;20223;-80
2023/03/09 08:23:35;;;;;;;11.20;10.23;;;12.70;99.90;;;;;;4973608;28;20261;-80
2023/03/09 08:26:03;;;;;;;10.90;9.90;;;12.60;99.90;;;;;;4970649;28;20229;-80
2023/03/09 08:28:30;;;;;;;10.43;9.50;;;12.50;99.90;;;;;;4978471;28;20702;-80
2023/03/09 08:30:57;;;;;;;9.00;8.20;;;12.50;99.90;;;;;;4953865;28;20755;-79
2023/03/09 08:33:24;;;;;;;10.70;9.60;;;12.60;99.90;;;;;;4960783;28;20209;-81
2023/03/09 08:35:51;;;;;;;9.63;8.73;;;12.70;99.90;;;;;;4969506;28;20194;-80
2023/03/09 08:38:18;;;;;;;9.73;9.13;;;12.70;99.90;;;;;;4966963;28;20681;-80
2023/03/09 08:40:44;;;;;;;9.83;9.13;;;12.70;99.90;;;;;;4969879;28;20294;-80
2023/03/09 08:43:13;;;;;;;9.87;9.17;;;12.70;99.90;;;;;;4973551;28;20197;-80
2023/03/09 08:45:39;;;;;;;9.60;8.80;;;12.60;99.90;;;;;;4965087;28;20293;-79
2023/03/09 08:48:07;;;;;;;9.30;8.70;;;12.50;99.90;;;;;;4962869;28;20198;-79
2023/03/09 08:50:34;;;;;;;9.50;8.80;;;12.40;99.90;;;;;;4959368;28;20212;-80
2023/03/09 08:53:01;;;;;;;9.70;8.90;;;12.20;99.90;;;;;;4966590;28;20269;-79
2023/03/09 08:55:28;;;;;;;8.47;7.97;;;12.10;99.90;;;;;;4965432;28;20249;-79
2023/03/09 08:57:56;;;;;;;10.53;9.60;;;12.10;99.90;;;;;;4965862;28;20633;-80
2023/03/09 09:00:24;;;;;;;10.20;9.50;;;12.20;99.90;;;;;;4970625;28;20254;-80
2023/03/09 09:02:51;;;;;;;10.10;9.40;;;12.40;99.90;;;;;;4960385;28;20195;-80
2023/03/09 09:05:18;;;;;;;9.50;8.80;;;12.70;99.90;;;;;;4959391;28;20273;-79
2023/03/09 09:07:45;;;;;;;9.57;8.80;;;13.00;99.90;;;;;;4968555;28;20194;-80
2023/03/09 09:10:12;;;;;;;9.97;9.20;;;13.10;99.90;;;;;;4966547;28;20206;-80
2023/03/09 09:12:39;;;;;;;9.40;8.60;;;12.90;99.90;;;;;;4965455;28;20218;-80
2023/03/09 09:15:09;;;;;;;9.40;8.70;;;12.90;99.90;;;;;;4963865;28;20199;-79
2023/03/09 09:17:37;;;;;;;9.40;8.70;;;12.80;99.90;;;;;;4966986;28;20227;-81
2023/03/09 09:20:05;;;;;;;8.90;8.40;;;13.00;99.90;;;;;;4949120;28;20211;-80
2023/03/09 09:22:32;;;;;;;8.80;8.20;;;13.00;99.90;;;;;;4954593;28;20223;-80
2023/03/09 09:24:58;;;;;;;9.00;8.40;;;13.00;99.90;;;;;;4953101;28;20202;-82
2023/03/09 09:27:25;;;;;;;9.03;8.23;;;13.20;99.90;;;;;;4956856;28;20562;-81
2023/03/09 09:29:53;;;;;;;9.80;9.00;;;13.20;99.90;;;;;;4970216;28;20680;-81
2023/03/09 09:32:20;;;;;;;8.47;7.97;;;13.20;99.90;;;;;;4967618;28;20720;-81
2023/03/09 09:34:49;;;;;;;8.43;7.83;;;13.40;99.90;;;;;;4963799;28;20208;-81
2023/03/09 09:37:16;;;;;;;8.90;8.30;;;13.60;99.90;;;;;;4961593;28;20339;-81
2023/03/09 09:39:44;;;;;;;7.90;7.40;;;13.70;99.90;;;;;;4966369;28;20206;-80
2023/03/09 09:42:20;;;;;;;8.83;8.10;;;13.90;99.90;;;;;;4972540;28;20226;-79
2023/03/09 09:44:49;;;;;;;3.57;3.30;;;14.40;99.90;;;;;;4954235;28;20200;-80
2023/03/09 09:47:21;;;;;;;7.20;5.43;;;14.60;99.90;;;;;;4954806;28;20250;-80
2023/03/09 09:49:52;;;;;;;3.50;2.80;;;14.70;99.90;;;;;;4965865;28;20283;-79
2023/03/09 09:52:34;;;;;;;5.77;3.20;;;14.90;99.90;;;;;;4953214;28;20277;-80
2023/03/09 09:55:07;;;;;;;4.87;2.47;;;15.00;99.90;;;;;;4962405;28;20242;-79
2023/03/09 09:57:39;;;;;;;3.47;2.60;;;14.90;99.90;;;;;;4953455;28;20196;-80
2023/03/09 10:00:12;;;;;;;3.13;2.27;;;14.60;99.90;;;;;;4964317;28;20217;-80
2023/03/09 10:02:49;;;;;;;3.70;2.60;;;14.20;99.90;;;;;;4972026;28;20676;-80
2023/03/09 10:05:23;;;;;;;3.70;3.17;;;13.90;99.90;;;;;;4963797;28;20264;-81
2023/03/09 10:07:52;;;;;;;3.97;2.30;;;13.60;99.90;;;;;;4966952;28;20205;-80
2023/03/09 10:10:22;;;;;;;7.63;3.00;;;13.40;99.90;;;;;;4970057;28;20697;-80
2023/03/09 10:12:49;;;;;;;5.33;3.37;;;13.20;99.90;;;;;;4950788;28;20206;-80
2023/03/09 10:15:23;;;;;;;4.17;3.00;;;13.20;99.90;;;;;;4950230;28;20353;-80
2023/03/09 10:17:55;;;;;;;3.20;2.90;;;13.30;99.90;;;;;;4940876;28;20276;-79
2023/03/09 10:20:28;;;;;;;2.90;2.50;;;13.40;99.90;;;;;;4943321;28;20204;-80
2023/03/09 10:22:56;;;;;;;5.23;2.70;;;13.50;99.90;;;;;;4953818;28;20211;-80
2023/03/09 10:25:25;;;;;;;3.50;2.70;;;13.60;99.90;;;;;;4972569;28;20670;-79
2023/03/09 10:27:56;;;;;;;5.17;2.87;;;13.70;99.90;;;;;;4971340;28;20202;-79
2023/03/09 10:30:35;;;;;;;3.73;2.43;;;13.70;99.90;;;;;;4961658;28;20208;-80
2023/03/09 10:33:07;;;;;;;3.73;2.80;;;13.80;99.90;;;;;;4975305;28;20237;-80
2023/03/09 10:35:42;;;;;;;3.00;2.80;;;13.90;99.90;;;;;;4961665;28;20567;-80
2023/03/09 10:38:13;;;;;;;7.30;3.20;;;14.00;99.90;;;;;;4959412;28;20213;-80
2023/03/09 10:40:43;;;;;;;3.53;2.93;;;14.00;99.90;;;;;;4965137;28;20233;-79
2023/03/09 10:43:18;;;;;;;5.87;3.10;;;14.00;99.90;;;;;;4968451;28;20197;-80
2023/03/09 10:45:44;;;;;;;3.90;3.60;;;13.90;99.90;;;;;;4972402;28;20300;-80
2023/03/09 10:48:21;;;;;;;5.97;4.47;;;13.90;99.90;;;;;;4963601;28;20654;-80
2023/03/09 10:50:58;;;;;;;6.60;4.37;;;14.00;99.90;;;;;;4965979;28;20220;-84
2023/03/09 10:53:33;;;;;;;5.10;4.60;;;14.00;99.90;;;;;;4952744;28;20206;-80
2023/03/09 10:56:06;;;;;;;7.53;5.53;;;13.90;99.90;;;;;;4967537;28;20231;-79
2023/03/09 10:58:34;;;;;;;6.03;5.40;;;14.00;99.90;;;;;;4958616;28;20208;-80
2023/03/09 11:01:03;;;;;;;5.30;4.87;;;14.00;99.90;;;;;;4961251;28;20234;-79
2023/03/09 11:03:38;;;;;;;9.73;8.23;;;14.10;99.90;;;;;;4965434;28;20213;-79
2023/03/09 11:06:32;;;;;;;7.10;6.20;;;14.10;99.90;;;;;;4969099;28;20217;-79
2023/03/09 11:09:13;;;;;;;4.03;3.73;;;14.10;99.90;;;;;;4950183;28;20603;-79
2023/03/09 11:11:40;;;;;;;5.90;3.40;;;14.10;99.90;;;;;;4950400;28;20218;-78
2023/03/09 11:14:24;;;;;;;4.80;2.40;;;14.10;99.90;;;;;;4962195;28;20206;-79
2023/03/09 11:16:53;;;;;;;5.03;2.80;;;14.10;99.90;;;;;;4954344;28;20252;-80
2023/03/09 11:19:20;;;;;;;5.13;2.50;;;14.10;99.90;;;;;;4969070;28;20203;-79
2023/03/09 11:21:58;;;;;;;4.37;2.67;;;14.00;99.90;;;;;;4959701;28;20222;-80
2023/03/09 11:24:28;;;;;;;3.47;2.90;;;13.90;99.90;;;;;;4966851;28;20205;-81
2023/03/09 11:26:59;;;;;;;4.50;3.27;;;13.90;99.90;;;;;;4972959;28;20691;-81
2023/03/09 11:29:32;;;;;;;5.30;2.63;;;13.90;99.90;;;;;;4964382;28;20291;-79
2023/03/09 11:31:59;;;;;;;8.33;4.20;;;13.90;99.90;;;;;;4965839;28;20228;-79
2023/03/09 11:34:30;;;;;;;8.60;7.87;;;13.70;99.90;;;;;;4962247;28;20209;-80
2023/03/09 11:37:02;;;;;;;9.30;8.60;;;13.70;99.90;;;;;;4960011;28;20209;-79
2023/03/09 11:39:34;;;;;;;5.53;3.17;;;13.80;99.90;;;;;;4961516;28;20238;-81
2023/03/09 11:42:05;;;;;;;5.30;2.70;;;13.90;99.90;;;;;;4959499;28;20239;-79
2023/03/09 11:44:36;;;;;;;9.43;8.73;;;14.00;99.90;;;;;;4973917;28;20204;-79
2023/03/09 11:47:06;;;;;;;4.40;2.70;;;14.00;99.90;;;;;;4970618;28;20235;-80
2023/03/09 11:49:34;;;;;;;2.63;2.43;;;14.10;99.90;;;;;;4962706;28;20203;-78
2023/03/09 11:52:07;;;;;;;4.03;2.20;;;14.30;99.90;;;;;;4961646;28;20227;-78
2023/03/09 11:54:40;;;;;;;6.23;2.30;;;14.40;99.90;;;;;;4951920;28;20527;-78
2023/03/09 11:57:11;;;;;;;4.37;2.83;;;14.40;99.90;;;;;;4962024;28;20250;-78
2023/03/09 11:59:45;;;;;;;4.70;2.83;;;14.40;99.90;;;;;;4955089;28;20698;-78
2023/03/09 12:02:18;;;;;;;5.03;2.40;;;14.50;99.90;;;;;;4966507;28;20769;-78
2023/03/09 12:04:48;;;;;;;5.43;2.47;;;14.50;99.90;;;;;;4973322;28;20196;-79
2023/03/09 12:07:21;;;;;;;3.70;3.40;;;14.60;99.90;;;;;;4967429;28;20631;-79
2023/03/09 12:09:55;;;;;;;5.80;4.50;;;14.80;99.90;;;;;;4962730;28;20671;-79
2023/03/09 12:12:27;;;;;;;4.73;4.23;;;14.70;99.90;;;;;;4960804;28;20229;-79
2023/03/09 12:15:00;;;;;;;6.93;6.43;;;14.60;99.90;;;;;;4957228;28;20217;-78
2023/03/09 12:17:33;;;;;;;3.67;2.60;;;14.70;99.90;;;;;;4960361;28;20208;-78
2023/03/09 12:20:00;;;;;;;4.67;2.80;;;14.80;99.90;;;;;;4962730;28;20212;-80
2023/03/09 12:22:32;;;;;;;5.87;2.80;;;14.80;99.90;;;;;;4964290;28;20226;-80
2023/03/09 12:25:01;;;;;;;6.37;4.27;;;14.90;99.90;;;;;;4963289;28;20663;-79
2023/03/09 12:27:31;;;;;;;5.23;2.47;;;14.80;99.90;;;;;;4970497;28;20269;-80
2023/03/09 12:30:10;;;;;;;3.97;2.50;;;14.80;99.90;;;;;;4965927;28;20259;-80
2023/03/09 12:32:43;;;;;;;3.93;2.43;;;14.90;99.90;;;;;;4958763;28;20213;-80
2023/03/09 12:35:14;;;;;;;2.80;2.10;;;14.90;99.90;;;;;;4966432;28;20285;-80
2023/03/09 12:37:55;;;;;;;6.07;2.37;;;14.90;99.90;;;;;;4949627;28;20194;-80
2023/03/09 12:40:32;;;;;;;3.47;2.37;;;15.00;99.90;;;;;;4963887;28;20199;-81
2023/03/09 12:43:52;;;;;;;9.43;8.47;;;14.90;99.90;;;;;;4964261;28;20206;-80
2023/03/09 12:46:51;;;;;;;3.73;2.30;;;14.90;99.90;;;;;;4956729;28;20235;-80
2023/03/09 12:49:21;;;;;;;6.77;6.27;;;14.70;99.90;;;;;;4953753;28;20222;-80
2023/03/09 12:52:15;;;;;;;8.90;8.20;;;14.70;99.90;;;;;;4968252;28;20229;-80
2023/03/09 12:54:43;;;;;;;8.90;8.20;;;14.60;99.90;;;;;;4967159;28;20209;-80
2023/03/09 12:57:17;;;;;;;9.33;8.60;;;14.50;99.90;;;;;;4964394;28;20206;-80
2023/03/09 12:59:46;;;;;;;9.20;8.43;;;14.60;99.90;;;;;;4958685;28;20241;-80
2023/03/09 13:02:31;;;;;;;8.67;8.03;;;14.60;99.90;;;;;;4963939;28;20230;-80
2023/03/09 13:05:30;;;;;;;8.87;8.17;;;14.70;99.90;;;;;;4960796;28;20192;-79
2023/03/09 13:08:07;;;;;;;8.70;8.10;;;14.70;99.90;;;;;;4959698;28;20222;-81
2023/03/09 13:10:38;;;;;;;9.30;8.40;;;14.80;99.90;;;;;;4974842;28;20234;-80
2023/03/09 13:13:39;;;;;;;9.10;8.23;;;14.90;99.90;;;;;;4969228;28;20204;-79
2023/03/09 13:16:36;;;;;;;8.37;7.70;;;15.00;99.90;;;;;;4964463;28;20205;-79
2023/03/09 13:19:52;;;;;;;8.17;7.57;;;15.00;99.90;;;;;;4965992;28;20213;-80
2023/03/09 13:22:22;;;;;;;8.70;8.00;;;15.00;99.90;;;;;;4964220;28;20233;-79
2023/03/09 13:24:55;;;;;;;8.47;7.70;;;14.90;99.90;;;;;;4948263;28;20207;-79
2023/03/09 13:27:26;;;;;;;8.60;8.00;;;14.90;99.90;;;;;;4947048;28;20233;-79
2023/03/09 13:29:55;;;;;;;8.00;7.50;;;14.90;99.90;;;;;;4952455;28;20256;-79
2023/03/09 13:32:27;;;;;;;7.73;7.23;;;15.10;99.90;;;;;;4946702;28;20227;-84
2023/03/09 13:34:55;;;;;;;7.87;7.27;;;15.40;99.90;;;;;;4973609;28;20217;-84
2023/03/09 13:37:24;;;;;;;8.23;7.63;;;15.50;99.90;;;;;;4969305;28;20633;-84
2023/03/09 13:40:00;;;;;;;7.90;7.40;;;15.40;99.90;;;;;;4965685;28;20201;-85
2023/03/09 13:42:30;;;;;;;7.70;7.10;;;15.60;99.90;;;;;;4956960;28;20222;-84
2023/03/09 13:44:58;;;;;;;8.40;7.20;;;15.70;99.90;;;;;;4961348;28;20271;-78
2023/03/09 13:47:27;;;;;;;16.73;3.87;;;15.80;99.90;;;;;;4950936;28;20230;-78
2023/03/09 13:49:55;;;;;;;5.97;2.40;;;15.90;99.90;;;;;;4959825;28;20213;-80
2023/03/09 13:52:23;;;;;;;3.47;2.47;;;16.00;99.90;;;;;;4963294;28;20223;-79
2023/03/09 13:54:53;;;;;;;2.33;2.13;;;16.00;99.90;;;;;;4962875;28;20268;-77
2023/03/09 13:57:21;;;;;;;4.57;3.20;;;16.00;99.90;;;;;;4969079;28;20308;-80
2023/03/09 13:59:55;;;;;;;2.97;2.00;;;15.90;99.90;;;;;;4961992;28;20812;-80
2023/03/09 14:02:23;;;;;;;4.57;2.30;;;15.90;99.90;;;;;;4961396;28;20229;-80
2023/03/09 14:04:51;;;;;;;3.70;2.20;;;15.90;99.90;;;;;;4967716;28;20202;-78
2023/03/09 14:07:21;;;;;;;5.53;2.70;;;15.80;99.90;;;;;;4965407;28;20772;-83
2023/03/09 14:09:54;;;;;;;2.43;2.13;;;15.70;99.90;;;;;;4953223;28;20198;-82
2023/03/09 14:12:27;;;;;;;2.80;2.07;;;15.80;99.90;;;;;;4964185;28;20309;-82
2023/03/09 14:14:56;;;;;;;3.80;2.40;;;15.80;99.90;;;;;;4959296;28;20214;-82
2023/03/09 14:17:23;;;;;;;5.53;2.43;;;15.80;99.90;;;;;;4967526;28;20249;-78
2023/03/09 14:19:52;;;;;;;3.90;2.93;;;15.70;99.90;;;;;;4965634;28;20273;-80
2023/03/09 14:22:21;;;;;;;8.23;7.60;;;15.50;99.90;;;;;;4960743;28;20246;-80
2023/03/09 14:24:48;;;;;;;8.20;7.60;;;15.50;99.90;;;;;;4954988;28;20202;-80
2023/03/09 14:27:24;;;;;;;8.53;7.93;;;15.40;99.90;;;;;;4959313;28;20253;-79
2023/03/09 14:29:53;;;;;;;8.80;8.10;;;15.30;99.90;;;;;;4960102;28;20574;-78
2023/03/09 14:32:25;;;;;;;8.80;8.00;;;15.10;99.90;;;;;;4963968;28;20234;-79
2023/03/09 14:34:53;;;;;;;9.53;8.73;;;15.00;99.90;;;;;;4969798;28;20553;-78
2023/03/09 14:37:24;;;;;;;8.87;8.20;;;14.80;99.90;;;;;;4967233;28;20205;-79
2023/03/09 14:39:51;;;;;;;7.93;7.30;;;14.60;99.90;;;;;;4955569;28;20206;-80
2023/03/09 14:42:25;;;;;;;8.90;8.20;;;14.60;99.90;;;;;;4960661;28;20769;-82
2023/03/09 14:45:09;;;;;;;8.80;8.20;;;14.60;99.90;;;;;;4954893;28;20235;-79
2023/03/09 14:47:38;;;;;;;8.70;7.80;;;14.70;99.90;;;;;;4969486;28;20222;-80
2023/03/09 14:50:06;;;;;;;8.80;8.20;;;14.60;99.90;;;;;;4964788;28;20230;-81
2023/03/09 14:52:36;;;;;;;8.80;8.20;;;14.40;99.90;;;;;;4961036;28;20231;-78
2023/03/09 14:55:03;;;;;;;9.20;8.50;;;14.30;99.90;;;;;;4961132;28;20260;-80
2023/03/09 14:57:30;;;;;;;9.80;8.80;;;14.30;99.90;;;;;;4965207;28;20205;-79
2023/03/09 14:59:56;;;;;;;9.97;9.00;;;14.20;99.90;;;;;;4941974;28;20235;-78
2023/03/09 15:02:23;;;;;;;9.80;9.07;;;14.20;99.90;;;;;;4953067;28;20236;-78
2023/03/09 15:04:52;;;;;;;9.00;8.30;;;14.20;99.90;;;;;;4947496;28;20205;-79
2023/03/09 15:07:19;;;;;;;9.00;8.20;;;14.20;99.90;;;;;;4949860;28;20224;-79
2023/03/09 15:09:46;;;;;;;9.20;8.30;;;14.20;99.90;;;;;;4949149;28;20202;-79
2023/03/09 15:12:17;;;;;;;9.40;8.70;;;14.10;99.90;;;;;;4948551;28;20668;-81
2023/03/09 15:14:46;;;;;;;9.20;8.50;;;14.00;99.90;;;;;;4953965;28;20266;-79
2023/03/09 15:17:15;;;;;;;9.07;8.30;;;13.90;99.90;;;;;;4944560;28;20203;-80
2023/03/09 15:19:42;;;;;;;10.03;9.13;;;13.90;99.90;;;;;;4953388;28;20568;-88
2023/03/09 15:22:13;;;;;;;9.53;8.63;;;13.80;99.90;;;;;;4945640;28;20227;-87
2023/03/09 15:24:40;;;;;;;9.50;8.70;;;13.80;99.90;;;;;;4951005;28;20663;-85
2023/03/09 15:27:07;;;;;;;8.40;7.23;;;13.80;99.90;;;;;;4951986;28;20228;-87
2023/03/09 15:29:34;;;;;;;8.40;6.67;;;13.80;99.90;;;;;;4956171;28;20271;-87
2023/03/09 15:32:06;;;;;;;9.57;8.73;;;13.80;99.90;;;;;;4947117;28;20221;-86
2023/03/09 15:34:34;;;;;;;10.37;9.47;;;13.80;99.90;;;;;;4949450;28;20289;-87
2023/03/09 15:37:01;;;;;;;11.40;10.40;;;13.80;99.90;;;;;;4952778;28;20677;-84
2023/03/09 15:39:29;;;;;;;6.10;5.30;;;13.70;99.90;;;;;;4954342;28;20211;-82
2023/03/09 15:41:56;;;;;;;7.70;6.70;;;13.70;99.90;;;;;;4947018;28;20300;-84
2023/03/09 15:44:23;;;;;;;9.43;8.50;;;13.70;99.90;;;;;;4950251;28;20204;-84
2023/03/09 15:46:50;;;;;;;8.20;7.60;;;13.80;99.90;;;;;;4955075;28;20239;-84
2023/03/09 15:49:17;;;;;;;6.77;6.20;;;13.80;99.90;;;;;;4948944;28;20217;-85
2023/03/09 15:51:44;;;;;;;7.70;6.93;;;13.80;99.90;;;;;;4952448;28;20221;-84
2023/03/09 15:54:11;;;;;;;9.50;6.03;;;13.80;99.90;;;;;;4948985;28;20223;-85
2023/03/09 15:56:39;;;;;;;7.67;5.40;;;13.70;99.90;;;;;;4948303;28;20234;-85
2023/03/09 15:59:06;;;;;;;6.70;6.03;;;13.70;99.90;;;;;;4950024;28;20655;-84
2023/03/09 16:01:33;;;;;;;5.93;5.00;;;13.60;99.90;;;;;;4959756;28;20240;-84